Weather at Srpci Airfield [CLOSED]

Public forecast

Using degrees Celsius for public forecast. Weather courtesy of forecast.io.

Closest aviation weather report (METAR) to Srpci Airfield

Closest report is Ohrid St. Paul the Apostle Airport, 30.1 nm (55.7 km) W.

2024/05/26 17:50 (retrieved 24 minutes ago)

LWOH 261750Z VRB04KT 9999 BKN050 17/11 Q1018

Closest aviation forecast (TAF) to Srpci Airfield

Closest forecast is Ohrid St. Paul the Apostle Airport, 30.1 nm (55.7 km) W.

2024/05/26 18:51 (retrieved 0 seconds ago)

TAF LWOH 261745Z 2618/2718 32006KT 9999 SCT050